createdAt,value
2023-04-15T00:01:53.086Z,25.67
2023-04-15T00:04:23.418Z,31.30
2023-04-15T00:06:56.744Z,23.20
2023-04-15T00:09:26.446Z,20.52
2023-04-15T00:11:56.016Z,23.33
2023-04-15T00:14:25.678Z,25.33
2023-04-15T00:16:57.832Z,18.77
2023-04-15T00:19:27.549Z,23.40
2023-04-15T00:21:57.140Z,22.70
2023-04-15T00:24:26.803Z,24.95
2023-04-15T00:26:56.394Z,28.73
2023-04-15T00:29:26.136Z,16.65
2023-04-15T00:31:56.216Z,15.40
2023-04-15T00:34:29.541Z,18.33
2023-04-15T00:36:59.108Z,21.17
2023-04-15T00:39:29.623Z,14.95
2023-04-15T00:41:59.763Z,18.15
2023-04-15T00:44:29.323Z,16.75
2023-04-15T00:47:00.985Z,16.17
2023-04-15T00:49:31.233Z,14.60
2023-04-15T00:52:00.872Z,15.52
2023-04-15T00:54:30.547Z,19.35
2023-04-15T00:57:01.059Z,18.17
2023-04-15T00:59:31.107Z,17.00
2023-04-15T01:02:00.899Z,14.20
2023-04-15T01:04:30.836Z,16.00
2023-04-15T01:07:00.643Z,21.77
2023-04-15T01:09:30.249Z,15.30
2023-04-15T01:12:00.153Z,15.73
2023-04-15T01:14:29.980Z,16.95
2023-04-15T01:17:00.309Z,19.42
2023-04-15T01:19:30.273Z,15.98
2023-04-15T01:22:00.159Z,19.30
2023-04-15T01:24:32.420Z,14.48
2023-04-15T01:27:02.122Z,20.58
2023-04-15T01:29:33.074Z,23.45
2023-04-15T01:32:02.736Z,17.45
2023-04-15T01:34:35.053Z,24.23
2023-04-15T01:37:05.401Z,20.27
2023-04-15T01:39:35.218Z,24.00
2023-04-15T01:42:05.663Z,18.75
2023-04-15T01:44:35.212Z,28.77
2023-04-15T01:47:04.852Z,16.90
2023-04-15T01:49:34.592Z,22.15
2023-04-15T01:52:04.127Z,24.08
2023-04-15T01:54:33.730Z,22.55
2023-04-15T01:57:03.823Z,21.60
2023-04-15T01:59:33.704Z,18.70
2023-04-15T02:02:03.341Z,17.55
2023-04-15T02:04:33.274Z,16.85
2023-04-15T02:07:03.317Z,22.50
2023-04-15T02:09:32.942Z,19.45
2023-04-15T02:12:02.625Z,16.80
2023-04-15T02:14:32.321Z,19.52
2023-04-15T02:17:08.714Z,17.27
2023-04-15T02:19:38.563Z,14.80
2023-04-15T02:22:09.261Z,20.60
2023-04-15T02:24:38.800Z,16.77
2023-04-15T02:27:08.324Z,21.25
2023-04-15T02:29:37.905Z,22.42
2023-04-15T02:32:07.864Z,22.25
2023-04-15T02:34:37.528Z,16.67
2023-04-15T02:37:07.059Z,16.70
2023-04-15T02:39:36.742Z,23.92
2023-04-15T02:42:07.613Z,21.98
2023-04-15T02:44:38.037Z,30.63
2023-04-15T02:47:08.655Z,23.70
2023-04-15T02:49:38.614Z,26.48
2023-04-15T02:52:08.614Z,23.33
2023-04-15T02:54:38.603Z,24.73
2023-04-15T02:57:08.462Z,20.25
2023-04-15T02:59:38.070Z,34.20
2023-04-15T03:02:09.298Z,23.60
2023-04-15T03:04:38.914Z,18.02
2023-04-15T03:07:08.519Z,19.58
2023-04-15T03:09:38.095Z,22.23
2023-04-15T03:12:07.991Z,20.05
2023-04-15T03:14:37.807Z,28.73
2023-04-15T03:17:07.475Z,27.35
2023-04-15T03:19:37.541Z,26.10
2023-04-15T03:22:07.194Z,24.10
2023-04-15T03:24:36.783Z,29.17
2023-04-15T03:27:07.900Z,23.73
2023-04-15T03:29:37.797Z,29.92
2023-04-15T03:32:07.451Z,30.42
2023-04-15T03:34:37.066Z,29.58
2023-04-15T03:37:07.397Z,25.75
2023-04-15T03:39:37.289Z,22.70
2023-04-15T03:42:07.079Z,28.05
2023-04-15T03:44:36.828Z,29.23
2023-04-15T03:47:06.433Z,24.08
2023-04-15T03:49:36.058Z,25.08
2023-04-15T03:52:05.949Z,36.72
2023-04-15T03:54:35.538Z,29.77
2023-04-15T03:57:05.221Z,25.23
2023-04-15T03:59:34.760Z,23.00
2023-04-15T04:02:04.522Z,38.53
2023-04-15T04:04:34.372Z,24.48
2023-04-15T04:07:04.037Z,39.85
2023-04-15T04:09:33.647Z,36.03
2023-04-15T04:12:04.184Z,41.63
2023-04-15T04:14:33.772Z,31.88
2023-04-15T04:17:03.427Z,34.05
2023-04-15T04:19:33.023Z,34.13
2023-04-15T04:22:02.960Z,22.63
2023-04-15T04:24:33.243Z,27.52
2023-04-15T04:27:02.905Z,25.35
2023-04-15T04:29:32.921Z,25.13
2023-04-15T04:32:02.662Z,37.55
2023-04-15T04:34:32.695Z,26.02
2023-04-15T04:37:02.322Z,25.63
2023-04-15T04:39:31.991Z,40.20
2023-04-15T04:42:01.607Z,27.58
2023-04-15T04:44:31.269Z,22.67
2023-04-15T04:47:00.837Z,31.20
2023-04-15T04:49:30.448Z,29.67
2023-04-15T04:52:00.285Z,33.08
2023-04-15T04:54:29.894Z,19.65
2023-04-15T04:56:59.491Z,37.78
2023-04-15T04:59:29.677Z,28.80
2023-04-15T05:01:59.337Z,21.35
2023-04-15T05:04:28.933Z,24.92
2023-04-15T05:06:58.502Z,31.65
2023-04-15T05:09:28.211Z,35.13
2023-04-15T05:11:58.230Z,29.67
2023-04-15T05:14:28.132Z,33.75
2023-04-15T05:16:58.320Z,36.58
2023-04-15T05:19:28.008Z,39.42
2023-04-15T05:21:57.692Z,25.60
2023-04-15T05:24:27.225Z,30.20
2023-04-15T05:26:57.791Z,27.63
2023-04-15T05:29:27.437Z,39.28
2023-04-15T05:31:57.568Z,29.35
2023-04-15T05:34:27.195Z,23.58
2023-04-15T05:36:56.939Z,38.60
2023-04-15T05:39:26.605Z,37.97
2023-04-15T05:41:56.223Z,35.75
2023-04-15T05:44:25.862Z,35.67
2023-04-15T05:46:55.535Z,35.20
2023-04-15T05:49:25.121Z,41.13
2023-04-15T05:51:54.689Z,45.42
2023-04-15T05:54:24.754Z,44.85
2023-04-15T05:56:54.305Z,41.15
2023-04-15T05:59:23.830Z,32.88
2023-04-15T06:01:53.813Z,39.03
2023-04-15T06:04:23.559Z,36.75
2023-04-15T06:06:53.695Z,37.03
2023-04-15T06:11:56.032Z,33.60
2023-04-15T06:14:25.672Z,38.97
2023-04-15T06:16:55.246Z,36.13
2023-04-15T06:19:24.785Z,30.23
2023-04-15T06:21:54.375Z,44.42
2023-04-15T06:24:23.977Z,50.55
2023-04-15T06:26:53.550Z,33.80
2023-04-15T06:29:23.113Z,44.53
2023-04-15T06:31:53.379Z,35.05
2023-04-15T06:34:23.136Z,36.58
2023-04-15T06:36:52.816Z,32.70
2023-04-15T06:39:22.581Z,36.72
2023-04-15T06:41:52.243Z,37.20
2023-04-15T06:44:22.238Z,39.95
2023-04-15T06:46:51.838Z,32.67
2023-04-15T06:49:21.477Z,42.97
2023-04-15T06:51:51.101Z,36.35
2023-04-15T06:54:20.876Z,41.78
2023-04-15T06:56:50.546Z,44.15
2023-04-15T06:59:20.493Z,31.00
2023-04-15T07:01:50.101Z,48.55
2023-04-15T07:04:19.719Z,46.53
2023-04-15T07:06:49.373Z,50.15
2023-04-15T07:09:18.969Z,38.13
2023-04-15T07:11:48.526Z,45.45
2023-04-15T07:14:18.131Z,49.05
2023-04-15T07:16:47.749Z,39.63
2023-04-15T07:19:17.403Z,36.38
2023-04-15T07:21:47.050Z,31.85
2023-04-15T07:24:19.701Z,51.00
2023-04-15T07:26:49.390Z,38.20
2023-04-15T07:29:19.056Z,36.30
2023-04-15T07:31:48.616Z,44.03
2023-04-15T07:34:18.537Z,40.10
2023-04-15T07:36:52.083Z,29.73
2023-04-15T07:39:21.658Z,39.70
2023-04-15T07:41:51.412Z,33.33
2023-04-15T07:44:21.007Z,33.25
2023-04-15T07:46:50.562Z,29.27
2023-04-15T07:49:21.059Z,36.60
2023-04-15T07:51:51.044Z,26.88
2023-04-15T07:54:20.609Z,27.35
2023-04-15T07:56:50.170Z,38.63
2023-04-15T07:59:20.571Z,42.30
2023-04-15T08:01:50.618Z,33.42
2023-04-15T08:04:20.300Z,36.35
2023-04-15T08:06:51.831Z,37.30
2023-04-15T08:09:22.005Z,27.73
2023-04-15T08:11:52.742Z,39.50
2023-04-15T08:14:22.419Z,33.80
2023-04-15T08:16:52.380Z,26.42
2023-04-15T08:19:22.693Z,43.25
2023-04-15T08:21:52.648Z,37.47
2023-04-15T08:24:22.881Z,39.95
2023-04-15T08:26:52.477Z,32.13
2023-04-15T08:29:22.271Z,31.90
2023-04-15T08:31:52.186Z,42.00
2023-04-15T08:34:21.817Z,44.70
2023-04-15T08:36:51.411Z,28.30
2023-04-15T08:39:21.087Z,44.58
2023-04-15T08:42:08.686Z,36.25
2023-04-15T08:44:38.528Z,38.97
2023-04-15T08:47:11.239Z,29.88
2023-04-15T08:49:43.477Z,33.90
2023-04-15T08:52:13.814Z,30.65
2023-04-15T08:54:43.847Z,40.95
2023-04-15T08:57:13.737Z,40.97
2023-04-15T08:59:44.492Z,29.08
2023-04-15T09:02:14.776Z,37.33
2023-04-15T09:04:44.424Z,42.25
2023-04-15T09:07:14.121Z,40.00
2023-04-15T09:09:43.873Z,32.80
2023-04-15T09:12:14.257Z,31.23
2023-04-15T09:14:44.107Z,33.65
2023-04-15T09:17:13.773Z,35.15
2023-04-15T09:19:43.332Z,38.08
2023-04-15T09:22:12.995Z,27.10
2023-04-15T09:24:44.818Z,37.45
2023-04-15T09:27:18.267Z,33.83
2023-04-15T09:29:51.866Z,34.30
2023-04-15T09:34:52.378Z,40.80
2023-04-15T09:37:38.274Z,41.80
2023-04-15T09:40:08.304Z,41.67
2023-04-15T09:42:38.781Z,45.63
2023-04-15T09:45:14.905Z,41.28
2023-04-15T09:47:44.576Z,48.88
2023-04-15T09:50:14.258Z,39.15
2023-04-15T09:52:47.306Z,36.83
2023-04-15T09:55:20.228Z,45.53
2023-04-15T09:57:49.987Z,39.50
2023-04-15T10:00:19.679Z,36.30
2023-04-15T10:02:51.296Z,50.70
2023-04-15T10:05:21.250Z,35.50
2023-04-15T10:07:51.809Z,31.48
2023-04-15T10:10:22.159Z,35.92
2023-04-15T10:12:54.142Z,23.80
2023-04-15T10:15:24.535Z,36.10
2023-04-15T10:17:55.683Z,37.67
2023-04-15T10:20:26.066Z,29.45
2023-04-15T10:22:56.083Z,42.63
2023-04-15T10:25:28.341Z,33.40
2023-04-15T10:27:59.608Z,43.75
2023-04-15T10:30:29.908Z,39.15
2023-04-15T10:33:00.386Z,43.50
2023-04-15T10:35:32.190Z,55.13
2023-04-15T10:38:02.011Z,33.13
2023-04-15T10:40:36.155Z,33.45
2023-04-15T10:43:06.178Z,46.80
2023-04-15T10:45:38.598Z,36.78
2023-04-15T10:48:10.649Z,40.45
2023-04-15T10:50:40.861Z,32.95
2023-04-15T10:53:13.195Z,51.40
2023-04-15T10:55:42.880Z,43.50
2023-04-15T10:58:12.778Z,41.22
2023-04-15T11:00:42.755Z,33.10
2023-04-15T11:03:13.601Z,37.53
2023-04-15T11:05:56.087Z,40.45
2023-04-15T11:09:00.308Z,38.30
2023-04-15T11:12:09.097Z,43.22
2023-04-15T11:14:49.361Z,40.58
2023-04-15T11:17:33.032Z,37.22
2023-04-15T11:20:02.937Z,34.83
2023-04-15T11:22:32.491Z,49.35
2023-04-15T11:25:02.069Z,53.00
2023-04-15T11:27:34.147Z,38.67
2023-04-15T11:30:03.926Z,35.35
2023-04-15T11:32:33.504Z,33.72
2023-04-15T11:35:03.149Z,43.60
2023-04-15T11:37:34.113Z,38.03
2023-04-15T11:40:05.547Z,42.13
2023-04-15T11:42:48.695Z,37.30
2023-04-15T11:45:19.377Z,42.00
2023-04-15T11:47:49.067Z,31.52
2023-04-15T11:50:26.097Z,30.77
2023-04-15T11:53:00.035Z,39.38
2023-04-15T11:55:29.953Z,28.52
2023-04-15T11:58:19.472Z,34.78
2023-04-15T12:00:51.879Z,32.85
2023-04-15T12:03:34.729Z,33.17
2023-04-15T12:06:23.783Z,39.33
2023-04-15T12:09:02.391Z,32.45
2023-04-15T12:11:48.944Z,46.00
2023-04-15T12:14:29.735Z,37.60
2023-04-15T12:17:04.547Z,37.80
2023-04-15T12:19:46.870Z,31.38
2023-04-15T12:22:18.650Z,34.20
2023-04-15T12:24:51.143Z,29.10
2023-04-15T12:27:20.940Z,37.92
2023-04-15T12:29:50.530Z,33.85
2023-04-15T12:32:24.399Z,42.13
2023-04-15T12:34:55.901Z,37.60
2023-04-15T12:37:25.841Z,39.45
2023-04-15T12:39:55.895Z,39.10
2023-04-15T12:42:25.551Z,27.90
2023-04-15T12:44:55.138Z,35.25
2023-04-15T12:47:24.781Z,38.97
2023-04-15T12:49:55.211Z,32.97
2023-04-15T12:52:25.991Z,34.20
2023-04-15T12:54:55.966Z,42.97
2023-04-15T12:57:25.551Z,45.90
2023-04-15T12:59:55.230Z,46.63
2023-04-15T13:02:26.990Z,33.03
2023-04-15T13:04:57.310Z,52.25
2023-04-15T13:07:27.084Z,40.25
2023-04-15T13:09:56.665Z,53.03
2023-04-15T13:12:26.267Z,57.13
2023-04-15T13:14:55.815Z,45.85
2023-04-15T13:17:25.481Z,49.60
2023-04-15T13:19:55.065Z,44.53
2023-04-15T13:22:24.629Z,43.25
2023-04-15T13:24:54.218Z,38.03
2023-04-15T13:27:23.949Z,43.95
2023-04-15T13:29:53.501Z,46.85
2023-04-15T13:32:23.180Z,46.13
2023-04-15T13:34:53.481Z,53.70
2023-04-15T13:37:23.178Z,44.72
2023-04-15T13:39:52.766Z,46.15
2023-04-15T13:42:23.120Z,50.50
2023-04-15T13:44:53.577Z,47.60
2023-04-15T13:47:23.511Z,57.70
2023-04-15T13:49:54.419Z,53.50
2023-04-15T13:52:24.793Z,50.80
2023-04-15T13:55:17.784Z,60.53
2023-04-15T13:57:43.962Z,51.65
2023-04-15T14:00:14.149Z,43.55
2023-04-15T14:02:44.059Z,51.88
2023-04-15T14:05:13.769Z,67.93
2023-04-15T14:07:43.686Z,55.80
2023-04-15T14:10:13.378Z,55.17
2023-04-15T14:12:43.057Z,52.65
2023-04-15T14:15:12.968Z,55.22
2023-04-15T14:17:44.025Z,55.33
2023-04-15T14:20:15.542Z,50.67
2023-04-15T14:22:46.507Z,62.58
2023-04-15T14:25:30.586Z,73.43
2023-04-15T14:28:03.786Z,44.28
2023-04-15T14:30:33.485Z,58.58
2023-04-15T14:33:03.228Z,75.32
2023-04-15T14:35:34.043Z,59.63
2023-04-15T14:38:03.698Z,59.22
2023-04-15T14:40:33.593Z,52.20
2023-04-15T14:43:03.179Z,72.72
2023-04-15T14:45:33.033Z,55.97
2023-04-15T14:48:03.050Z,55.60
2023-04-15T14:50:32.773Z,47.78
2023-04-15T14:53:02.367Z,45.58
2023-04-15T14:55:32.359Z,53.83
2023-04-15T14:58:03.738Z,61.08
2023-04-15T15:00:33.505Z,58.35
2023-04-15T15:03:03.317Z,75.25
2023-04-15T15:05:51.125Z,84.15
2023-04-15T15:08:20.785Z,55.35
2023-04-15T15:10:50.367Z,59.13
2023-04-15T15:13:20.855Z,71.10
2023-04-15T15:15:53.612Z,63.92
2023-04-15T15:18:23.356Z,67.37
2023-04-15T15:20:53.317Z,68.35
2023-04-15T15:23:22.974Z,54.30
2023-04-15T15:25:52.686Z,55.80
2023-04-15T15:28:23.370Z,66.45
2023-04-15T15:30:53.215Z,74.32
2023-04-15T15:33:23.131Z,77.43
2023-04-15T15:35:53.366Z,70.45
2023-04-15T15:38:24.354Z,74.90
2023-04-15T15:40:53.943Z,66.75
2023-04-15T15:43:23.610Z,66.45
2023-04-15T15:45:56.763Z,55.25
2023-04-15T15:48:26.886Z,65.93
2023-04-15T15:50:56.812Z,52.00
2023-04-15T15:53:27.406Z,79.43
2023-04-15T15:55:57.036Z,75.78
2023-04-15T15:58:26.778Z,71.07
2023-04-15T16:00:56.394Z,58.78
2023-04-15T16:03:26.315Z,69.43
2023-04-15T16:05:56.078Z,56.60
2023-04-15T16:08:25.687Z,52.15
2023-04-15T16:10:55.318Z,51.72
2023-04-15T16:13:25.047Z,52.03
2023-04-15T16:15:54.616Z,50.85
2023-04-15T16:18:24.170Z,70.55
2023-04-15T16:20:53.845Z,63.85
2023-04-15T16:23:25.311Z,63.03
2023-04-15T16:25:55.045Z,54.85
2023-04-15T16:28:26.862Z,47.95
2023-04-15T16:30:58.649Z,52.88
2023-04-15T16:33:28.587Z,64.72
2023-04-15T16:35:58.122Z,67.18
2023-04-15T16:38:27.755Z,61.70
2023-04-15T16:41:00.823Z,57.83
2023-04-15T16:43:31.058Z,64.22
2023-04-15T16:46:00.673Z,58.67
2023-04-15T16:48:30.339Z,70.28
2023-04-15T16:51:00.127Z,81.40
2023-04-15T16:53:29.828Z,79.28
2023-04-15T16:55:59.471Z,74.72
2023-04-15T16:58:30.331Z,76.45
2023-04-15T17:01:01.070Z,60.85
2023-04-15T17:03:30.821Z,57.55
2023-04-15T17:06:00.608Z,54.92
2023-04-15T17:08:30.224Z,58.17
2023-04-15T17:11:00.361Z,57.75
2023-04-15T17:13:29.944Z,57.90
2023-04-15T17:15:59.558Z,69.03
2023-04-15T17:18:29.604Z,66.93
2023-04-15T17:20:59.383Z,47.35
2023-04-15T17:23:28.946Z,75.03
2023-04-15T17:25:58.718Z,62.45
2023-04-15T17:28:28.302Z,78.18
2023-04-15T17:30:57.935Z,74.53
2023-04-15T17:34:00.291Z,81.18
2023-04-15T17:36:18.634Z,60.65
2023-04-15T17:38:48.173Z,64.70
2023-04-15T17:41:17.976Z,76.78
2023-04-15T17:43:47.628Z,76.75
2023-04-15T17:46:17.286Z,71.10
2023-04-15T17:48:47.858Z,69.75
2023-04-15T17:51:18.599Z,74.15
2023-04-15T17:53:48.204Z,83.43
2023-04-15T17:56:17.961Z,107.82
2023-04-15T17:58:47.631Z,81.93
2023-04-15T18:01:17.216Z,79.45
2023-04-15T18:03:47.163Z,75.00
2023-04-15T18:06:18.445Z,79.55
2023-04-15T18:08:47.999Z,69.72
2023-04-15T18:11:17.607Z,70.63
2023-04-15T18:13:47.177Z,60.97
2023-04-15T18:16:16.898Z,78.90
2023-04-15T18:18:46.513Z,83.53
2023-04-15T18:21:16.120Z,64.88
2023-04-15T18:23:45.699Z,81.15
2023-04-15T18:26:15.637Z,84.63
2023-04-15T18:28:45.264Z,82.03
2023-04-15T18:31:15.028Z,75.47
2023-04-15T18:33:44.571Z,89.22
2023-04-15T18:36:14.261Z,72.47
2023-04-15T18:38:43.861Z,64.72
2023-04-15T18:41:13.477Z,69.65
2023-04-15T18:43:43.149Z,66.00
2023-04-15T18:46:13.978Z,77.90
2023-04-15T18:48:43.629Z,74.38
2023-04-15T18:51:13.446Z,73.38
2023-04-15T18:53:43.028Z,83.13
2023-04-15T18:56:13.026Z,82.93
2023-04-15T18:59:25.703Z,70.65
2023-04-15T19:01:34.250Z,78.70
2023-04-15T19:04:04.043Z,87.18
2023-04-15T19:06:33.794Z,71.75
2023-04-15T19:09:04.140Z,75.13
2023-04-15T19:11:33.977Z,91.75
2023-04-15T19:14:03.761Z,72.82
2023-04-15T19:16:34.593Z,79.72
2023-04-15T19:19:04.613Z,68.47
2023-04-15T19:21:34.566Z,73.40
2023-04-15T19:24:04.328Z,62.92
2023-04-15T19:26:33.952Z,79.00
2023-04-15T19:29:03.739Z,82.38
2023-04-15T19:31:33.792Z,79.88
2023-04-15T19:34:03.402Z,75.03
2023-04-15T19:36:34.850Z,71.15
2023-04-15T19:39:04.830Z,63.08
2023-04-15T19:41:34.669Z,68.72
2023-04-15T19:44:05.907Z,68.35
2023-04-15T19:46:35.707Z,74.70
2023-04-15T19:49:05.621Z,77.97
2023-04-15T19:51:35.410Z,85.53
2023-04-15T19:54:05.056Z,66.05
2023-04-15T19:56:34.905Z,87.63
2023-04-15T19:59:04.753Z,69.82
2023-04-15T20:01:34.636Z,65.40
2023-04-15T20:04:05.451Z,82.03
2023-04-15T20:06:35.239Z,81.30
2023-04-15T20:09:05.083Z,70.05
2023-04-15T20:12:47.477Z,97.57
2023-04-15T20:14:24.446Z,86.22
2023-04-15T20:16:53.976Z,72.70
2023-04-15T20:19:23.629Z,62.30
2023-04-15T20:21:53.187Z,64.60
2023-04-15T20:24:23.450Z,54.95
2023-04-15T20:26:52.989Z,72.80
2023-04-15T20:29:22.698Z,85.57
2023-04-15T20:31:52.325Z,100.90
2023-04-15T20:34:22.050Z,64.65
2023-04-15T20:36:51.656Z,66.38
2023-04-15T20:39:21.282Z,56.63
2023-04-15T20:41:52.235Z,53.78
2023-04-15T20:44:21.976Z,56.72
2023-04-15T20:46:51.636Z,55.22
2023-04-15T20:49:21.221Z,71.18
2023-04-15T20:51:51.568Z,59.97
2023-04-15T20:54:21.231Z,64.22
2023-04-15T20:56:50.797Z,68.97
2023-04-15T20:59:20.443Z,80.00
2023-04-15T21:01:50.243Z,58.03
2023-04-15T21:04:19.922Z,49.58
2023-04-15T21:06:49.781Z,79.57
2023-04-15T21:09:19.556Z,62.75
2023-04-15T21:11:59.684Z,69.60
2023-04-15T21:14:30.777Z,67.03
2023-04-15T21:17:00.522Z,58.95
2023-04-15T21:19:30.088Z,73.32
2023-04-15T21:21:59.641Z,53.00
2023-04-15T21:24:29.404Z,65.88
2023-04-15T21:26:59.068Z,71.50
2023-04-15T21:29:28.814Z,75.78
2023-04-15T21:31:58.482Z,78.45
2023-04-15T21:34:28.145Z,88.85
2023-04-15T21:36:57.694Z,65.03
2023-04-15T21:39:27.406Z,85.93
2023-04-15T21:41:57.322Z,55.35
2023-04-15T21:44:27.233Z,53.25
2023-04-15T21:46:56.922Z,60.88
2023-04-15T21:49:26.531Z,60.85
2023-04-15T21:51:56.157Z,71.03
2023-04-15T21:54:25.801Z,55.10
2023-04-15T21:56:55.500Z,46.75
2023-04-15T21:59:25.075Z,56.88
2023-04-15T22:01:54.797Z,60.58
2023-04-15T22:04:24.639Z,52.33
2023-04-15T22:06:57.124Z,53.22
2023-04-15T22:09:26.716Z,59.60
2023-04-15T22:11:56.319Z,67.88
2023-04-15T22:14:25.890Z,63.72
2023-04-15T22:16:56.094Z,67.70
2023-04-15T22:19:25.731Z,64.03
2023-04-15T22:21:55.314Z,69.97
2023-04-15T22:24:32.769Z,91.20
2023-04-15T22:27:09.458Z,60.47
2023-04-15T22:29:39.106Z,74.85
2023-04-15T22:32:09.876Z,62.60
2023-04-15T22:34:39.407Z,82.40
2023-04-15T22:37:09.002Z,61.30
2023-04-15T22:39:38.570Z,70.00
2023-04-15T22:42:08.148Z,68.05
2023-04-15T22:44:37.745Z,55.33
2023-04-15T22:47:07.329Z,64.30
2023-04-15T22:49:37.758Z,58.33
2023-04-15T22:52:09.059Z,50.33
2023-04-15T22:54:41.772Z,55.35
2023-04-15T22:57:11.508Z,70.22
2023-04-15T22:59:41.347Z,72.90
2023-04-15T23:02:10.998Z,61.17
2023-04-15T23:04:40.755Z,56.58
2023-04-15T23:07:10.503Z,66.65
2023-04-15T23:09:40.794Z,75.47
2023-04-15T23:12:10.438Z,57.90
2023-04-15T23:14:40.071Z,79.03
2023-04-15T23:17:09.660Z,89.05
2023-04-15T23:19:39.234Z,82.05
2023-04-15T23:22:11.963Z,68.13
2023-04-15T23:24:41.513Z,68.73
2023-04-15T23:27:11.087Z,67.15
2023-04-15T23:29:40.675Z,51.50
2023-04-15T23:32:10.232Z,79.57
2023-04-15T23:34:40.129Z,86.20
2023-04-15T23:37:09.680Z,81.05
2023-04-15T23:39:39.224Z,72.72
2023-04-15T23:42:08.812Z,85.57
2023-04-15T23:44:39.833Z,79.07
2023-04-15T23:47:09.467Z,73.05
2023-04-15T23:49:39.165Z,67.68
2023-04-15T23:52:09.326Z,81.57
2023-04-15T23:54:38.887Z,70.47
2023-04-15T23:57:08.524Z,91.45
2023-04-15T23:59:38.155Z,79.95
